createdAt,value
2019-03-26T00:01:57.512Z,6.43
2019-03-26T00:04:36.120Z,8.20
2019-03-26T00:07:07.189Z,7.83
2019-03-26T00:09:39.091Z,5.47
2019-03-26T00:12:10.290Z,16.67
2019-03-26T00:14:41.434Z,10.73
2019-03-26T00:17:20.388Z,12.03
2019-03-26T00:19:51.696Z,5.00
2019-03-26T00:22:21.520Z,5.17
2019-03-26T00:24:52.544Z,13.43
2019-03-26T00:27:28.798Z,7.27
2019-03-26T00:29:59.738Z,6.40
2019-03-26T00:32:29.624Z,8.77
2019-03-26T00:34:59.523Z,12.63
2019-03-26T00:37:29.490Z,13.23
2019-03-26T00:39:59.386Z,10.27
2019-03-26T00:42:29.286Z,9.23
2019-03-26T00:44:59.249Z,8.10
2019-03-26T00:47:29.109Z,10.67
2019-03-26T00:49:59.040Z,6.63
2019-03-26T00:52:28.978Z,13.53
2019-03-26T00:55:05.021Z,9.63
2019-03-26T00:57:34.907Z,11.73
2019-03-26T01:00:06.221Z,7.57
2019-03-26T01:02:37.191Z,8.77
2019-03-26T01:05:07.304Z,15.27
2019-03-26T01:07:39.227Z,9.97
2019-03-26T01:10:13.191Z,10.10
2019-03-26T01:12:43.028Z,4.43
2019-03-26T01:15:15.379Z,12.57
2019-03-26T01:17:47.433Z,9.50
2019-03-26T01:20:17.323Z,11.07
2019-03-26T01:22:47.215Z,9.67
2019-03-26T01:25:17.127Z,6.80
2019-03-26T01:27:47.054Z,5.17
2019-03-26T01:30:16.969Z,9.30
2019-03-26T01:32:46.835Z,9.13
2019-03-26T01:35:16.743Z,7.70
2019-03-26T01:37:46.728Z,12.77
2019-03-26T01:40:16.653Z,8.33
2019-03-26T01:42:46.515Z,6.60
2019-03-26T01:45:16.537Z,9.80
2019-03-26T01:47:48.496Z,11.37
2019-03-26T01:50:18.297Z,6.30
2019-03-26T01:52:49.941Z,7.57
2019-03-26T01:55:21.973Z,11.60
2019-03-26T01:57:51.728Z,5.13
2019-03-26T02:00:28.620Z,8.43
2019-03-26T02:02:58.594Z,9.00
2019-03-26T02:05:28.437Z,9.70
2019-03-26T02:07:58.394Z,8.03
2019-03-26T02:10:28.355Z,8.37
2019-03-26T02:12:59.481Z,8.27
2019-03-26T02:15:32.787Z,4.17
2019-03-26T02:18:04.889Z,4.30
2019-03-26T02:20:34.505Z,6.73
2019-03-26T02:23:04.477Z,6.90
2019-03-26T02:25:34.202Z,12.30
2019-03-26T02:28:04.704Z,9.07
2019-03-26T02:30:34.616Z,7.97
2019-03-26T02:33:05.066Z,10.00
2019-03-26T02:35:36.036Z,12.70
2019-03-26T02:38:05.976Z,8.90
2019-03-26T02:40:37.992Z,8.93
2019-03-26T02:43:07.848Z,8.40
2019-03-26T02:45:37.756Z,8.27
2019-03-26T02:48:07.827Z,11.67
2019-03-26T02:50:39.847Z,9.40
2019-03-26T02:53:09.955Z,8.10
2019-03-26T02:55:40.123Z,12.23
2019-03-26T02:59:16.046Z,8.67
2019-03-26T03:01:50.200Z,11.88
2019-03-26T03:04:20.864Z,10.55
2019-03-26T03:06:51.617Z,13.23
2019-03-26T03:09:21.601Z,14.25
2019-03-26T03:11:51.460Z,8.60
2019-03-26T03:14:21.366Z,9.00
2019-03-26T03:16:53.095Z,13.33
2019-03-26T03:19:28.636Z,12.80
2019-03-26T03:21:58.494Z,10.13
2019-03-26T03:24:34.370Z,13.57
2019-03-26T03:27:04.198Z,9.00
2019-03-26T03:29:34.008Z,8.93
2019-03-26T03:32:04.908Z,9.70
2019-03-26T03:34:37.914Z,14.93
2019-03-26T03:37:07.858Z,13.97
2019-03-26T03:39:37.812Z,6.77
2019-03-26T03:42:07.656Z,13.27
2019-03-26T03:44:37.549Z,9.80
2019-03-26T03:47:08.638Z,6.23
2019-03-26T03:49:47.795Z,5.53
2019-03-26T03:52:20.560Z,10.53
2019-03-26T03:54:51.229Z,14.23
2019-03-26T03:57:23.633Z,11.83
2019-03-26T03:59:53.552Z,6.20
2019-03-26T04:02:23.662Z,11.50
2019-03-26T04:04:53.713Z,9.00
2019-03-26T04:07:23.591Z,6.47
2019-03-26T04:09:53.583Z,10.60
2019-03-26T04:12:28.820Z,8.30
2019-03-26T04:14:58.735Z,10.03
2019-03-26T04:17:28.631Z,12.33
2019-03-26T04:19:58.572Z,9.57
2019-03-26T04:22:28.485Z,7.90
2019-03-26T04:25:14.121Z,6.07
2019-03-26T04:27:43.917Z,7.10
2019-03-26T04:30:25.042Z,11.00
2019-03-26T04:32:56.863Z,6.90
2019-03-26T04:35:47.246Z,4.60
2019-03-26T04:38:17.084Z,10.03
2019-03-26T04:41:05.063Z,4.70
2019-03-26T04:43:37.881Z,8.87
2019-03-26T04:46:08.943Z,9.10
2019-03-26T04:48:38.916Z,7.63
2019-03-26T04:51:08.776Z,7.80
2019-03-26T04:53:38.757Z,10.10
2019-03-26T04:56:08.648Z,14.17
2019-03-26T04:58:38.523Z,10.23
2019-03-26T05:01:08.436Z,7.10
2019-03-26T05:03:38.408Z,13.13
2019-03-26T05:06:08.333Z,11.70
2019-03-26T05:08:38.176Z,11.33
2019-03-26T05:11:08.182Z,11.27
2019-03-26T05:13:38.011Z,8.53
2019-03-26T05:16:16.977Z,12.73
2019-03-26T05:18:46.856Z,10.10
2019-03-26T05:21:25.221Z,12.57
2019-03-26T05:23:55.701Z,11.43
2019-03-26T05:26:25.628Z,10.63
2019-03-26T05:29:07.864Z,7.53
2019-03-26T05:31:37.806Z,8.40
2019-03-26T05:34:08.903Z,9.93
2019-03-26T05:36:50.682Z,10.97
2019-03-26T05:39:16.567Z,11.57
2019-03-26T05:41:46.418Z,11.70
2019-03-26T05:44:16.304Z,18.30
2019-03-26T05:46:46.325Z,12.33
2019-03-26T05:49:16.153Z,8.53
2019-03-26T05:51:46.091Z,10.80
2019-03-26T05:54:16.061Z,12.10
2019-03-26T05:56:45.924Z,13.23
2019-03-26T05:59:15.917Z,7.47
2019-03-26T06:01:45.872Z,15.37
2019-03-26T06:04:15.656Z,14.17
2019-03-26T06:06:45.611Z,15.33
2019-03-26T06:09:15.551Z,14.90
2019-03-26T06:11:46.668Z,8.57
2019-03-26T06:14:18.392Z,7.13
2019-03-26T06:16:51.132Z,6.50
2019-03-26T06:19:22.389Z,7.70
2019-03-26T06:21:53.412Z,10.07
2019-03-26T06:24:23.176Z,11.50
2019-03-26T06:26:53.127Z,9.77
2019-03-26T06:29:23.257Z,8.63
2019-03-26T06:31:55.510Z,12.37
2019-03-26T06:34:25.368Z,14.70
2019-03-26T06:36:55.350Z,5.37
2019-03-26T06:39:25.164Z,9.17
2019-03-26T06:41:55.341Z,10.50
2019-03-26T06:44:42.431Z,11.33
2019-03-26T06:47:15.344Z,11.33
2019-03-26T06:49:46.544Z,4.57
2019-03-26T06:52:16.494Z,12.17
2019-03-26T06:54:46.555Z,12.23
2019-03-26T06:57:39.307Z,9.13
2019-03-26T07:00:10.481Z,14.00
2019-03-26T07:02:43.320Z,13.30
2019-03-26T07:05:14.439Z,9.50
2019-03-26T07:08:17.491Z,14.00
2019-03-26T07:10:51.713Z,16.13
2019-03-26T07:13:25.642Z,8.43
2019-03-26T07:15:56.728Z,16.00
2019-03-26T07:18:33.893Z,15.73
2019-03-26T07:21:03.776Z,11.03
2019-03-26T07:23:33.655Z,10.63
2019-03-26T07:26:03.946Z,15.37
2019-03-26T07:28:36.293Z,14.77
2019-03-26T07:31:14.763Z,17.73
2019-03-26T07:33:55.368Z,13.50
2019-03-26T07:36:28.675Z,15.57
2019-03-26T07:39:15.807Z,17.43
2019-03-26T07:41:45.877Z,19.67
2019-03-26T07:44:20.979Z,11.45
2019-03-26T07:46:51.517Z,16.00
2019-03-26T07:49:31.519Z,16.73
2019-03-26T07:52:09.297Z,14.53
2019-03-26T07:54:56.581Z,10.30
2019-03-26T07:57:47.759Z,10.67
2019-03-26T08:00:55.996Z,15.47
2019-03-26T08:03:25.905Z,9.95
2019-03-26T08:05:56.005Z,13.80
2019-03-26T08:08:26.145Z,9.70
2019-03-26T08:10:57.306Z,8.00
2019-03-26T08:13:35.484Z,10.57
2019-03-26T08:16:06.309Z,8.83
2019-03-26T08:18:37.179Z,7.57
2019-03-26T08:21:07.129Z,8.47
2019-03-26T08:23:42.774Z,12.40
2019-03-26T08:26:21.063Z,10.47
2019-03-26T08:28:52.126Z,16.43
2019-03-26T08:31:31.559Z,13.87
2019-03-26T08:34:01.341Z,9.57
2019-03-26T08:36:31.189Z,11.73
2019-03-26T08:39:01.067Z,11.27
2019-03-26T08:41:30.975Z,12.83
2019-03-26T08:44:00.933Z,11.50
2019-03-26T08:46:30.828Z,11.33
2019-03-26T08:49:00.783Z,6.67
2019-03-26T08:51:30.701Z,5.83
2019-03-26T08:54:00.675Z,12.13
2019-03-26T08:56:36.725Z,13.20
2019-03-26T08:59:07.841Z,10.47
2019-03-26T09:01:37.675Z,13.17
2019-03-26T09:04:07.705Z,8.73
2019-03-26T09:06:38.798Z,7.53
2019-03-26T09:09:09.097Z,10.90
2019-03-26T09:11:39.158Z,9.47
2019-03-26T09:14:09.640Z,13.30
2019-03-26T09:16:39.674Z,9.33
2019-03-26T09:19:10.620Z,12.63
2019-03-26T09:21:41.623Z,10.00
2019-03-26T09:24:12.755Z,8.17
2019-03-26T09:26:43.078Z,6.03
2019-03-26T09:29:14.330Z,11.03
2019-03-26T09:31:44.589Z,7.27
2019-03-26T09:34:14.410Z,11.03
2019-03-26T09:36:46.341Z,9.47
2019-03-26T09:39:18.514Z,10.53
2019-03-26T09:41:49.600Z,11.23
2019-03-26T09:44:19.981Z,6.27
2019-03-26T09:46:52.745Z,11.37
2019-03-26T09:49:23.720Z,11.70
2019-03-26T09:51:53.634Z,10.67
2019-03-26T09:54:23.526Z,9.30
2019-03-26T09:56:53.446Z,10.53
2019-03-26T09:59:30.402Z,9.30
2019-03-26T10:02:04.835Z,6.93
2019-03-26T10:04:34.703Z,12.40
2019-03-26T10:07:04.695Z,7.53
2019-03-26T10:09:35.774Z,10.67
2019-03-26T10:12:06.408Z,5.57
2019-03-26T10:14:36.573Z,9.00
2019-03-26T10:17:08.764Z,7.83
2019-03-26T10:19:38.872Z,9.60
2019-03-26T10:22:11.120Z,9.07
2019-03-26T10:24:40.928Z,8.83
2019-03-26T10:27:11.822Z,6.72
2019-03-26T10:29:43.700Z,7.27
2019-03-26T10:32:13.538Z,6.53
2019-03-26T10:34:43.490Z,4.47
2019-03-26T10:37:13.412Z,6.00
2019-03-26T10:39:43.335Z,9.33
2019-03-26T10:42:15.472Z,5.17
2019-03-26T10:44:52.302Z,13.87
2019-03-26T10:47:30.013Z,12.83
2019-03-26T10:50:08.857Z,13.77
2019-03-26T10:52:57.564Z,7.10
2019-03-26T10:55:27.554Z,8.73
2019-03-26T10:57:57.462Z,6.47
2019-03-26T11:00:27.551Z,12.17
2019-03-26T11:02:58.453Z,7.00
2019-03-26T11:05:28.901Z,10.07
2019-03-26T11:07:59.107Z,6.30
2019-03-26T11:10:28.954Z,6.93
2019-03-26T11:13:02.745Z,12.27
2019-03-26T11:15:33.797Z,13.70
2019-03-26T11:18:05.160Z,19.80
2019-03-26T11:20:35.243Z,5.63
2019-03-26T11:23:05.311Z,10.30
2019-03-26T11:25:35.566Z,11.00
2019-03-26T11:28:06.053Z,10.63
2019-03-26T11:30:44.041Z,8.13
2019-03-26T11:33:15.181Z,14.20
2019-03-26T11:35:51.265Z,5.70
2019-03-26T11:38:21.224Z,8.50
2019-03-26T11:41:00.369Z,6.77
2019-03-26T11:43:30.417Z,8.77
2019-03-26T11:46:01.541Z,13.43
2019-03-26T11:48:37.609Z,10.90
2019-03-26T11:51:09.598Z,9.43
2019-03-26T11:53:45.691Z,6.10
2019-03-26T11:56:28.129Z,7.65
2019-03-26T11:59:03.809Z,5.93
2019-03-26T12:01:34.907Z,8.83
2019-03-26T12:04:11.856Z,10.30
2019-03-26T12:06:45.928Z,8.00
2019-03-26T12:09:21.193Z,9.80
2019-03-26T12:11:57.522Z,11.03
2019-03-26T12:18:10.146Z,6.93
2019-03-26T12:36:39.403Z,11.23
2019-03-26T12:39:14.193Z,8.50
2019-03-26T12:41:55.374Z,14.50
2019-03-26T12:44:42.604Z,19.87
2019-03-26T12:48:17.585Z,13.03
2019-03-26T12:51:58.922Z,14.60
2019-03-26T12:54:54.633Z,13.70
2019-03-26T13:02:05.026Z,17.27
2019-03-26T13:12:29.715Z,10.33
2019-03-26T13:15:30.559Z,10.10
2019-03-26T13:18:00.604Z,16.77
2019-03-26T13:21:46.614Z,10.55
2019-03-26T13:59:14.246Z,9.00
2019-03-26T14:01:49.840Z,8.27
2019-03-26T14:04:20.826Z,8.60
2019-03-26T14:06:52.579Z,8.35
2019-03-26T14:09:22.358Z,8.57
2019-03-26T14:11:57.504Z,17.37
2019-03-26T14:14:25.794Z,11.37
2019-03-26T14:16:57.852Z,7.00
2019-03-26T14:19:27.718Z,10.60
2019-03-26T14:21:59.680Z,10.97
2019-03-26T14:24:29.717Z,11.53
2019-03-26T14:27:14.652Z,6.73
2019-03-26T14:29:44.652Z,8.27
2019-03-26T14:32:14.498Z,9.30
2019-03-26T14:34:48.168Z,11.53
2019-03-26T14:37:21.352Z,12.63
2019-03-26T14:40:00.352Z,7.17
2019-03-26T14:42:33.478Z,9.30
2019-03-26T14:45:05.459Z,12.33
2019-03-26T14:47:35.309Z,8.67
2019-03-26T14:50:06.988Z,5.65
2019-03-26T14:52:42.935Z,6.73
2019-03-26T14:55:12.966Z,9.10
2019-03-26T14:57:51.834Z,8.03
2019-03-26T15:00:21.660Z,6.87
2019-03-26T15:02:51.603Z,11.30
2019-03-26T15:05:21.543Z,9.00
2019-03-26T15:07:51.469Z,14.90
2019-03-26T15:10:23.400Z,12.73
2019-03-26T15:12:54.952Z,15.47
2019-03-26T15:15:24.901Z,7.60
2019-03-26T15:17:54.946Z,13.07
2019-03-26T15:20:37.753Z,8.10
2019-03-26T15:23:08.572Z,7.97
2019-03-26T15:25:38.414Z,10.17
2019-03-26T15:28:11.559Z,13.33
2019-03-26T15:30:47.238Z,10.70
2019-03-26T15:33:17.380Z,8.60
2019-03-26T15:35:47.483Z,14.87
2019-03-26T15:38:19.641Z,10.07
2019-03-26T15:40:49.823Z,13.77
2019-03-26T15:43:40.191Z,9.43
2019-03-26T15:46:11.131Z,14.03
2019-03-26T15:48:49.837Z,14.40
2019-03-26T15:51:22.658Z,7.90
2019-03-26T15:53:52.972Z,15.10
2019-03-26T15:56:22.919Z,17.73
2019-03-26T15:58:53.001Z,16.00
2019-03-26T16:01:28.892Z,13.57
2019-03-26T16:04:00.858Z,11.00
2019-03-26T16:06:30.747Z,15.83
2019-03-26T16:09:01.275Z,10.80
2019-03-26T16:11:35.991Z,9.67
2019-03-26T16:14:03.039Z,13.20
2019-03-26T16:16:32.998Z,12.23
2019-03-26T16:19:05.095Z,11.87
2019-03-26T16:21:45.956Z,15.90
2019-03-26T16:24:16.287Z,14.57
2019-03-26T16:26:47.337Z,9.73
2019-03-26T16:29:17.338Z,8.83
2019-03-26T16:31:48.834Z,16.20
2019-03-26T16:34:18.724Z,10.23
2019-03-26T16:36:58.789Z,10.70
2019-03-26T16:39:20.298Z,8.63
2019-03-26T16:41:59.154Z,11.83
2019-03-26T16:44:29.386Z,13.13
2019-03-26T16:46:59.441Z,12.03
2019-03-26T16:49:31.477Z,14.33
2019-03-26T16:52:11.516Z,12.03
2019-03-26T16:55:14.992Z,15.43
2019-03-26T16:58:07.451Z,14.67
2019-03-26T17:00:38.444Z,13.53
2019-03-26T17:03:08.675Z,12.13
2019-03-26T17:05:40.876Z,18.90
2019-03-26T17:08:11.352Z,11.93
2019-03-26T17:10:42.803Z,15.03
2019-03-26T17:13:25.691Z,14.63
2019-03-26T17:15:57.806Z,14.17
2019-03-26T17:18:34.413Z,13.33
2019-03-26T17:21:18.382Z,15.20
2019-03-26T17:23:54.893Z,15.47
2019-03-26T17:26:25.670Z,16.57
2019-03-26T17:29:06.003Z,10.03
2019-03-26T17:31:36.515Z,18.57
2019-03-26T17:34:06.434Z,18.27
2019-03-26T17:36:37.923Z,21.37
2019-03-26T17:39:17.656Z,13.57
2019-03-26T17:41:54.630Z,16.77
2019-03-26T17:44:51.179Z,16.63
2019-03-26T17:47:24.273Z,16.40
2019-03-26T17:50:04.072Z,15.93
2019-03-26T17:52:36.139Z,13.13
2019-03-26T17:55:06.739Z,12.90
2019-03-26T17:57:41.572Z,23.50
2019-03-26T18:00:17.907Z,15.30
2019-03-26T18:02:48.111Z,10.97
2019-03-26T18:05:28.465Z,15.83
2019-03-26T18:07:58.800Z,14.27
2019-03-26T18:10:28.829Z,10.20
2019-03-26T18:12:58.789Z,10.97
2019-03-26T18:15:30.022Z,12.40
2019-03-26T18:18:06.012Z,12.40
2019-03-26T18:20:35.912Z,13.53
2019-03-26T18:23:08.886Z,12.93
2019-03-26T18:25:39.009Z,9.93
2019-03-26T18:28:10.608Z,12.70
2019-03-26T18:30:42.524Z,19.07
2019-03-26T18:33:12.401Z,15.97
2019-03-26T18:35:42.352Z,17.00
2019-03-26T18:38:14.849Z,14.03
2019-03-26T18:40:44.910Z,18.17
2019-03-26T18:43:15.974Z,14.40
2019-03-26T18:45:49.206Z,11.60
2019-03-26T18:48:25.006Z,33.07
2019-03-26T18:50:56.119Z,29.27
2019-03-26T18:53:26.098Z,14.80
2019-03-26T18:56:07.395Z,18.13
2019-03-26T18:58:37.334Z,17.30
2019-03-26T19:01:07.352Z,17.80
2019-03-26T19:03:38.531Z,18.40
2019-03-26T19:06:10.437Z,17.80
2019-03-26T19:08:40.250Z,12.67
2019-03-26T19:11:11.541Z,8.83
2019-03-26T19:13:46.634Z,11.73
2019-03-26T19:16:22.369Z,12.50
2019-03-26T19:18:57.210Z,18.27
2019-03-26T19:21:27.111Z,11.30
2019-03-26T19:24:12.228Z,15.17
2019-03-26T19:26:44.946Z,18.07
2019-03-26T19:29:29.515Z,18.20
2019-03-26T19:32:03.688Z,22.43
2019-03-26T19:34:36.779Z,19.83
2019-03-26T19:37:11.619Z,18.47
2019-03-26T19:39:51.243Z,22.53
2019-03-26T19:42:21.035Z,18.67
2019-03-26T19:44:54.853Z,16.30
2019-03-26T19:47:24.918Z,16.57
2019-03-26T19:49:54.715Z,18.63
2019-03-26T19:52:24.601Z,18.43
2019-03-26T19:54:56.731Z,17.67
2019-03-26T19:57:27.672Z,19.10
2019-03-26T19:59:59.233Z,23.37
2019-03-26T20:02:39.309Z,17.50
2019-03-26T20:05:14.565Z,24.47
2019-03-26T20:07:44.571Z,33.43
2019-03-26T20:10:22.832Z,30.70
2019-03-26T20:13:02.139Z,35.33
2019-03-26T20:15:32.091Z,37.73
2019-03-26T20:18:04.034Z,30.03
2019-03-26T20:20:37.159Z,26.60
2019-03-26T20:23:08.267Z,34.47
2019-03-26T20:25:38.408Z,32.43
2019-03-26T20:28:15.999Z,30.07
2019-03-26T20:30:52.946Z,27.33
2019-03-26T20:33:25.703Z,26.77
2019-03-26T20:35:56.741Z,33.17
2019-03-26T20:38:27.858Z,28.03
2019-03-26T20:41:02.916Z,26.60
2019-03-26T20:43:37.540Z,28.83
2019-03-26T20:46:11.240Z,28.87
2019-03-26T20:48:58.372Z,26.83
2019-03-26T20:51:29.847Z,29.90
2019-03-26T20:54:19.313Z,29.60
2019-03-26T20:56:50.268Z,28.27
2019-03-26T20:59:22.708Z,41.43
2019-03-26T21:01:59.846Z,30.07
2019-03-26T21:04:33.088Z,32.97
2019-03-26T21:07:08.249Z,32.43
2019-03-26T21:09:42.860Z,29.13
2019-03-26T21:12:20.756Z,30.50
2019-03-26T21:14:54.990Z,35.50
2019-03-26T21:17:26.106Z,29.23
2019-03-26T21:19:59.927Z,39.40
2019-03-26T21:22:31.181Z,33.97
2019-03-26T21:25:09.407Z,38.33
2019-03-26T21:27:41.656Z,33.00
2019-03-26T21:30:21.930Z,26.37
2019-03-26T21:32:53.489Z,31.30
2019-03-26T21:35:24.439Z,26.37
2019-03-26T21:38:10.390Z,22.67
2019-03-26T21:40:40.723Z,27.10
2019-03-26T21:43:10.583Z,31.23
2019-03-26T21:45:41.194Z,27.87
2019-03-26T21:48:11.381Z,29.63
2019-03-26T21:50:48.957Z,34.10
2019-03-26T21:53:21.246Z,29.00
2019-03-26T21:55:51.251Z,26.73
2019-03-26T21:58:25.209Z,29.67
2019-03-26T22:00:55.198Z,28.70
2019-03-26T22:03:26.329Z,32.87
2019-03-26T22:06:02.701Z,30.83
2019-03-26T22:08:35.493Z,24.47
2019-03-26T22:11:26.984Z,25.10
2019-03-26T22:13:59.163Z,31.53
2019-03-26T22:16:36.023Z,33.23
2019-03-26T22:19:27.762Z,34.63
2019-03-26T22:21:48.998Z,28.70
2019-03-26T22:24:27.000Z,26.67
2019-03-26T22:26:57.023Z,29.57
2019-03-26T22:29:31.037Z,32.90
2019-03-26T22:32:06.766Z,31.97
2019-03-26T22:34:36.911Z,19.70
2019-03-26T22:37:18.016Z,30.40
2019-03-26T22:39:49.863Z,27.63
2019-03-26T22:42:19.749Z,32.17
2019-03-26T22:45:04.675Z,33.90
2019-03-26T22:47:41.297Z,31.87
2019-03-26T22:50:13.825Z,29.95
2019-03-26T22:52:45.700Z,30.23
2019-03-26T22:55:15.618Z,32.10
2019-03-26T22:57:49.205Z,25.50
2019-03-26T23:00:21.109Z,32.30
2019-03-26T23:02:51.127Z,31.00
2019-03-26T23:05:21.025Z,30.07
2019-03-26T23:07:53.364Z,31.53
2019-03-26T23:10:23.290Z,32.57
2019-03-26T23:13:05.504Z,34.90
2019-03-26T23:15:35.396Z,29.87
2019-03-26T23:18:06.185Z,31.57
2019-03-26T23:20:42.321Z,28.07
2019-03-26T23:23:19.022Z,30.70
2019-03-26T23:25:48.988Z,35.03
2019-03-26T23:28:18.913Z,24.50
2019-03-26T23:30:55.001Z,25.10
2019-03-26T23:33:28.205Z,36.80
2019-03-26T23:35:59.310Z,34.07
2019-03-26T23:38:31.292Z,27.10
2019-03-26T23:41:01.183Z,28.53
2019-03-26T23:43:34.450Z,31.67
2019-03-26T23:46:07.412Z,32.83
2019-03-26T23:48:37.496Z,35.50
2019-03-26T23:51:09.396Z,33.03
2019-03-26T23:53:40.076Z,27.97
2019-03-26T23:56:10.975Z,36.83
2019-03-26T23:58:44.121Z,30.57
